sensor_id;sensor_type;location;lat;lon;timestamp;temperature;humidity
22364;DHT22;11349;53.412;-1.328;2023-07-31T00:00:49;18.40;99.90
22364;DHT22;11349;53.412;-1.328;2023-07-31T00:03:15;18.40;99.90
22364;DHT22;11349;53.412;-1.328;2023-07-31T00:05:41;18.40;99.90
22364;DHT22;11349;53.412;-1.328;2023-07-31T00:08:07;18.40;99.90
22364;DHT22;11349;53.412;-1.328;2023-07-31T00:10:32;18.20;99.90
22364;DHT22;11349;53.412;-1.328;2023-07-31T00:12:59;18.30;28.60
22364;DHT22;11349;53.412;-1.328;2023-07-31T00:15:25;18.10;99.90
22364;DHT22;11349;53.412;-1.328;2023-07-31T00:17:50;18.20;99.90
22364;DHT22;11349;53.412;-1.328;2023-07-31T00:20:16;18.10;1.00
22364;DHT22;11349;53.412;-1.328;2023-07-31T00:22:42;18.00;1.00
22364;DHT22;11349;53.412;-1.328;2023-07-31T00:25:08;17.80;3.30
22364;DHT22;11349;53.412;-1.328;2023-07-31T00:27:33;17.60;1.00
22364;DHT22;11349;53.412;-1.328;2023-07-31T00:29:59;17.40;1.00
22364;DHT22;11349;53.412;-1.328;2023-07-31T00:32:25;17.30;45.20
22364;DHT22;11349;53.412;-1.328;2023-07-31T00:34:50;17.20;99.90
22364;DHT22;11349;53.412;-1.328;2023-07-31T00:37:16;17.20;99.90
22364;DHT22;11349;53.412;-1.328;2023-07-31T00:39:42;17.10;99.90
22364;DHT22;11349;53.412;-1.328;2023-07-31T00:42:07;17.10;99.90
22364;DHT22;11349;53.412;-1.328;2023-07-31T00:44:33;17.10;99.90
22364;DHT22;11349;53.412;-1.328;2023-07-31T00:47:01;17.10;99.90
22364;DHT22;11349;53.412;-1.328;2023-07-31T00:49:27;17.20;99.90
22364;DHT22;11349;53.412;-1.328;2023-07-31T00:51:53;17.50;99.90
22364;DHT22;11349;53.412;-1.328;2023-07-31T00:54:19;17.50;99.90
22364;DHT22;11349;53.412;-1.328;2023-07-31T00:56:46;17.50;1.00
22364;DHT22;11349;53.412;-1.328;2023-07-31T00:59:13;17.50;99.90
22364;DHT22;11349;53.412;-1.328;2023-07-31T01:01:40;17.60;99.90
22364;DHT22;11349;53.412;-1.328;2023-07-31T01:04:06;17.70;99.90
22364;DHT22;11349;53.412;-1.328;2023-07-31T01:09:17;17.80;99.90
22364;DHT22;11349;53.412;-1.328;2023-07-31T01:12:02;17.70;99.90
22364;DHT22;11349;53.412;-1.328;2023-07-31T01:14:28;17.90;99.90
22364;DHT22;11349;53.412;-1.328;2023-07-31T01:16:54;18.10;1.00
22364;DHT22;11349;53.412;-1.328;2023-07-31T01:19:25;18.20;1.00
22364;DHT22;11349;53.412;-1.328;2023-07-31T01:27:24;18.20;1.00
22364;DHT22;11349;53.412;-1.328;2023-07-31T01:30:08;18.30;1.00
22364;DHT22;11349;53.412;-1.328;2023-07-31T01:32:40;18.30;99.90
22364;DHT22;11349;53.412;-1.328;2023-07-31T01:35:07;18.40;99.90
22364;DHT22;11349;53.412;-1.328;2023-07-31T01:37:34;18.40;99.90
22364;DHT22;11349;53.412;-1.328;2023-07-31T01:40:04;18.40;99.90
22364;DHT22;11349;53.412;-1.328;2023-07-31T01:42:30;18.40;1.00
22364;DHT22;11349;53.412;-1.328;2023-07-31T01:44:56;18.30;1.00
22364;DHT22;11349;53.412;-1.328;2023-07-31T01:47:22;18.40;99.90
22364;DHT22;11349;53.412;-1.328;2023-07-31T01:49:49;18.40;99.90
22364;DHT22;11349;53.412;-1.328;2023-07-31T01:52:14;18.30;1.00
22364;DHT22;11349;53.412;-1.328;2023-07-31T01:54:40;18.30;1.00
22364;DHT22;11349;53.412;-1.328;2023-07-31T01:57:06;18.30;1.00
22364;DHT22;11349;53.412;-1.328;2023-07-31T01:59:32;18.40;99.90
22364;DHT22;11349;53.412;-1.328;2023-07-31T02:01:57;18.40;99.90
22364;DHT22;11349;53.412;-1.328;2023-07-31T02:04:23;18.30;99.90
22364;DHT22;11349;53.412;-1.328;2023-07-31T02:06:49;18.30;99.90
22364;DHT22;11349;53.412;-1.328;2023-07-31T02:09:14;18.00;68.90
22364;DHT22;11349;53.412;-1.328;2023-07-31T02:11:40;18.10;1.00
22364;DHT22;11349;53.412;-1.328;2023-07-31T02:14:06;18.20;99.90
22364;DHT22;11349;53.412;-1.328;2023-07-31T02:16:31;18.20;99.90
22364;DHT22;11349;53.412;-1.328;2023-07-31T02:18:57;18.20;99.90
22364;DHT22;11349;53.412;-1.328;2023-07-31T02:21:23;18.20;99.90
22364;DHT22;11349;53.412;-1.328;2023-07-31T02:23:48;18.20;1.00
22364;DHT22;11349;53.412;-1.328;2023-07-31T02:26:15;18.20;99.90
22364;DHT22;11349;53.412;-1.328;2023-07-31T02:28:41;18.20;99.90
22364;DHT22;11349;53.412;-1.328;2023-07-31T02:31:08;18.20;99.90
22364;DHT22;11349;53.412;-1.328;2023-07-31T02:33:34;18.20;99.90
22364;DHT22;11349;53.412;-1.328;2023-07-31T02:36:00;18.10;25.70
22364;DHT22;11349;53.412;-1.328;2023-07-31T02:38:25;18.10;1.00
22364;DHT22;11349;53.412;-1.328;2023-07-31T02:40:52;18.10;99.90
22364;DHT22;11349;53.412;-1.328;2023-07-31T02:43:17;18.10;1.00
22364;DHT22;11349;53.412;-1.328;2023-07-31T02:45:43;18.10;1.00
22364;DHT22;11349;53.412;-1.328;2023-07-31T02:48:09;18.10;99.90
22364;DHT22;11349;53.412;-1.328;2023-07-31T02:50:34;18.10;1.00
22364;DHT22;11349;53.412;-1.328;2023-07-31T02:53:00;18.20;99.90
22364;DHT22;11349;53.412;-1.328;2023-07-31T02:55:26;18.20;1.00
22364;DHT22;11349;53.412;-1.328;2023-07-31T02:57:52;18.20;1.00
22364;DHT22;11349;53.412;-1.328;2023-07-31T03:00:18;18.20;99.90
22364;DHT22;11349;53.412;-1.328;2023-07-31T03:02:44;18.30;99.90
22364;DHT22;11349;53.412;-1.328;2023-07-31T03:05:10;18.30;99.90
22364;DHT22;11349;53.412;-1.328;2023-07-31T03:07:35;18.20;1.00
22364;DHT22;11349;53.412;-1.328;2023-07-31T03:10:01;18.20;99.90
22364;DHT22;11349;53.412;-1.328;2023-07-31T03:12:27;18.30;99.90
22364;DHT22;11349;53.412;-1.328;2023-07-31T03:14:53;18.40;99.90
22364;DHT22;11349;53.412;-1.328;2023-07-31T03:17:18;18.40;99.90
22364;DHT22;11349;53.412;-1.328;2023-07-31T03:19:44;18.30;99.90
22364;DHT22;11349;53.412;-1.328;2023-07-31T03:22:10;18.30;99.90
22364;DHT22;11349;53.412;-1.328;2023-07-31T03:24:36;18.20;1.00
22364;DHT22;11349;53.412;-1.328;2023-07-31T03:27:01;18.20;1.00
22364;DHT22;11349;53.412;-1.328;2023-07-31T03:29:27;18.20;99.90
22364;DHT22;11349;53.412;-1.328;2023-07-31T03:31:53;18.20;99.90
22364;DHT22;11349;53.412;-1.328;2023-07-31T03:34:19;18.20;99.90
22364;DHT22;11349;53.412;-1.328;2023-07-31T03:36:44;18.10;30.00
22364;DHT22;11349;53.412;-1.328;2023-07-31T03:39:10;18.00;49.70
22364;DHT22;11349;53.412;-1.328;2023-07-31T03:41:36;18.10;1.00
22364;DHT22;11349;53.412;-1.328;2023-07-31T03:44:01;18.20;1.00
22364;DHT22;11349;53.412;-1.328;2023-07-31T03:46:27;18.20;99.90
22364;DHT22;11349;53.412;-1.328;2023-07-31T03:48:53;18.10;99.90
22364;DHT22;11349;53.412;-1.328;2023-07-31T03:51:19;18.00;99.90
22364;DHT22;11349;53.412;-1.328;2023-07-31T03:53:44;17.90;99.90
22364;DHT22;11349;53.412;-1.328;2023-07-31T03:56:11;17.90;37.30
22364;DHT22;11349;53.412;-1.328;2023-07-31T03:58:36;18.00;99.90
22364;DHT22;11349;53.412;-1.328;2023-07-31T04:01:03;17.90;99.90
22364;DHT22;11349;53.412;-1.328;2023-07-31T04:03:29;17.90;1.00
22364;DHT22;11349;53.412;-1.328;2023-07-31T04:05:55;17.80;99.90
22364;DHT22;11349;53.412;-1.328;2023-07-31T04:08:22;17.70;1.00
22364;DHT22;11349;53.412;-1.328;2023-07-31T04:10:48;17.70;99.90
22364;DHT22;11349;53.412;-1.328;2023-07-31T04:13:14;17.70;1.00
22364;DHT22;11349;53.412;-1.328;2023-07-31T04:15:40;17.70;1.00
22364;DHT22;11349;53.412;-1.328;2023-07-31T04:18:06;17.80;99.90
22364;DHT22;11349;53.412;-1.328;2023-07-31T04:20:32;17.90;1.00
22364;DHT22;11349;53.412;-1.328;2023-07-31T04:22:57;17.70;99.90
22364;DHT22;11349;53.412;-1.328;2023-07-31T04:25:23;17.60;99.90
22364;DHT22;11349;53.412;-1.328;2023-07-31T04:27:49;17.50;99.90
22364;DHT22;11349;53.412;-1.328;2023-07-31T04:30:15;17.30;99.90
22364;DHT22;11349;53.412;-1.328;2023-07-31T04:32:40;17.30;99.90
22364;DHT22;11349;53.412;-1.328;2023-07-31T04:35:06;17.20;99.90
22364;DHT22;11349;53.412;-1.328;2023-07-31T04:37:32;17.20;99.90
22364;DHT22;11349;53.412;-1.328;2023-07-31T04:39:58;17.20;99.90
22364;DHT22;11349;53.412;-1.328;2023-07-31T04:42:23;17.20;99.90
22364;DHT22;11349;53.412;-1.328;2023-07-31T04:44:49;17.20;99.90
22364;DHT22;11349;53.412;-1.328;2023-07-31T04:47:15;17.20;99.90
22364;DHT22;11349;53.412;-1.328;2023-07-31T04:49:40;17.20;99.90
22364;DHT22;11349;53.412;-1.328;2023-07-31T04:52:06;17.10;99.90
22364;DHT22;11349;53.412;-1.328;2023-07-31T04:54:32;17.10;99.90
22364;DHT22;11349;53.412;-1.328;2023-07-31T04:56:58;17.10;99.90
22364;DHT22;11349;53.412;-1.328;2023-07-31T04:59:23;17.10;99.90
22364;DHT22;11349;53.412;-1.328;2023-07-31T05:01:49;17.00;99.90
22364;DHT22;11349;53.412;-1.328;2023-07-31T05:04:15;17.10;99.90
22364;DHT22;11349;53.412;-1.328;2023-07-31T05:06:41;17.10;99.90
22364;DHT22;11349;53.412;-1.328;2023-07-31T05:09:07;17.10;99.90
22364;DHT22;11349;53.412;-1.328;2023-07-31T05:11:34;17.10;99.90
22364;DHT22;11349;53.412;-1.328;2023-07-31T05:14:00;17.10;99.90
22364;DHT22;11349;53.412;-1.328;2023-07-31T05:16:26;17.10;99.90
22364;DHT22;11349;53.412;-1.328;2023-07-31T05:18:52;17.10;99.90
22364;DHT22;11349;53.412;-1.328;2023-07-31T05:21:17;17.10;99.90
22364;DHT22;11349;53.412;-1.328;2023-07-31T05:23:43;17.10;99.90
22364;DHT22;11349;53.412;-1.328;2023-07-31T05:26:09;17.20;99.90
22364;DHT22;11349;53.412;-1.328;2023-07-31T05:28:35;17.20;99.90
22364;DHT22;11349;53.412;-1.328;2023-07-31T05:31:02;17.20;99.90
22364;DHT22;11349;53.412;-1.328;2023-07-31T05:33:29;17.10;99.90
22364;DHT22;11349;53.412;-1.328;2023-07-31T05:35:54;17.20;99.90
22364;DHT22;11349;53.412;-1.328;2023-07-31T05:38:20;17.40;99.90
22364;DHT22;11349;53.412;-1.328;2023-07-31T05:40:47;17.40;99.90
22364;DHT22;11349;53.412;-1.328;2023-07-31T05:43:13;17.40;99.90
22364;DHT22;11349;53.412;-1.328;2023-07-31T05:45:38;17.40;99.90
22364;DHT22;11349;53.412;-1.328;2023-07-31T05:48:11;17.40;99.90
22364;DHT22;11349;53.412;-1.328;2023-07-31T05:50:37;17.30;99.90
22364;DHT22;11349;53.412;-1.328;2023-07-31T05:53:05;17.30;99.90
22364;DHT22;11349;53.412;-1.328;2023-07-31T05:55:31;17.30;99.90
22364;DHT22;11349;53.412;-1.328;2023-07-31T05:57:57;17.50;99.90
22364;DHT22;11349;53.412;-1.328;2023-07-31T06:00:23;17.60;99.90
22364;DHT22;11349;53.412;-1.328;2023-07-31T06:02:49;17.50;99.90
22364;DHT22;11349;53.412;-1.328;2023-07-31T06:05:14;17.60;99.90
22364;DHT22;11349;53.412;-1.328;2023-07-31T06:07:40;17.70;99.90
22364;DHT22;11349;53.412;-1.328;2023-07-31T06:10:06;17.80;99.90
22364;DHT22;11349;53.412;-1.328;2023-07-31T06:12:33;17.80;99.90
22364;DHT22;11349;53.412;-1.328;2023-07-31T06:14:59;17.60;99.90
22364;DHT22;11349;53.412;-1.328;2023-07-31T06:17:25;17.80;99.90
22364;DHT22;11349;53.412;-1.328;2023-07-31T06:19:51;17.80;99.90
22364;DHT22;11349;53.412;-1.328;2023-07-31T06:22:17;17.90;99.90
22364;DHT22;11349;53.412;-1.328;2023-07-31T06:24:44;17.90;99.90
22364;DHT22;11349;53.412;-1.328;2023-07-31T06:27:10;17.90;99.90
22364;DHT22;11349;53.412;-1.328;2023-07-31T06:29:36;18.00;99.90
22364;DHT22;11349;53.412;-1.328;2023-07-31T06:32:02;17.90;99.90
22364;DHT22;11349;53.412;-1.328;2023-07-31T06:34:28;18.00;99.90
22364;DHT22;11349;53.412;-1.328;2023-07-31T06:36:58;18.10;99.90
22364;DHT22;11349;53.412;-1.328;2023-07-31T06:39:24;18.20;99.90
22364;DHT22;11349;53.412;-1.328;2023-07-31T06:41:49;18.10;99.90
22364;DHT22;11349;53.412;-1.328;2023-07-31T06:44:15;18.20;96.40
22364;DHT22;11349;53.412;-1.328;2023-07-31T06:46:42;18.20;1.00
22364;DHT22;11349;53.412;-1.328;2023-07-31T06:49:08;18.30;99.90
22364;DHT22;11349;53.412;-1.328;2023-07-31T06:51:34;18.30;1.00
22364;DHT22;11349;53.412;-1.328;2023-07-31T06:54:01;18.40;99.90
22364;DHT22;11349;53.412;-1.328;2023-07-31T06:56:27;18.40;99.90
22364;DHT22;11349;53.412;-1.328;2023-07-31T06:58:53;18.40;30.80
22364;DHT22;11349;53.412;-1.328;2023-07-31T07:01:18;18.40;99.90
22364;DHT22;11349;53.412;-1.328;2023-07-31T07:03:44;18.50;99.90
22364;DHT22;11349;53.412;-1.328;2023-07-31T07:06:10;18.60;99.90
22364;DHT22;11349;53.412;-1.328;2023-07-31T07:08:36;18.60;1.00
22364;DHT22;11349;53.412;-1.328;2023-07-31T07:11:01;18.50;99.90
22364;DHT22;11349;53.412;-1.328;2023-07-31T07:13:27;18.70;99.90
22364;DHT22;11349;53.412;-1.328;2023-07-31T07:15:53;18.70;99.90
22364;DHT22;11349;53.412;-1.328;2023-07-31T07:18:19;18.70;1.00
22364;DHT22;11349;53.412;-1.328;2023-07-31T07:20:50;18.70;99.90
22364;DHT22;11349;53.412;-1.328;2023-07-31T07:23:16;18.80;3.30
22364;DHT22;11349;53.412;-1.328;2023-07-31T07:25:43;18.80;1.00
22364;DHT22;11349;53.412;-1.328;2023-07-31T07:28:09;18.90;75.60
22364;DHT22;11349;53.412;-1.328;2023-07-31T07:30:35;18.80;99.90
22364;DHT22;11349;53.412;-1.328;2023-07-31T07:33:01;18.90;1.00
22364;DHT22;11349;53.412;-1.328;2023-07-31T07:35:27;18.90;99.90
22364;DHT22;11349;53.412;-1.328;2023-07-31T07:37:52;18.90;99.90
22364;DHT22;11349;53.412;-1.328;2023-07-31T07:40:19;18.90;99.90
22364;DHT22;11349;53.412;-1.328;2023-07-31T07:42:45;18.90;33.00
22364;DHT22;11349;53.412;-1.328;2023-07-31T07:45:11;19.00;99.90
22364;DHT22;11349;53.412;-1.328;2023-07-31T07:47:40;18.90;1.00
22364;DHT22;11349;53.412;-1.328;2023-07-31T07:50:06;19.00;1.00
22364;DHT22;11349;53.412;-1.328;2023-07-31T07:52:32;18.90;45.40
22364;DHT22;11349;53.412;-1.328;2023-07-31T07:54:58;19.00;99.90
22364;DHT22;11349;53.412;-1.328;2023-07-31T07:57:23;19.00;57.10
22364;DHT22;11349;53.412;-1.328;2023-07-31T07:59:52;19.00;1.00
22364;DHT22;11349;53.412;-1.328;2023-07-31T08:02:18;19.00;1.00
22364;DHT22;11349;53.412;-1.328;2023-07-31T08:04:44;19.00;1.00
22364;DHT22;11349;53.412;-1.328;2023-07-31T08:07:12;19.00;1.00
22364;DHT22;11349;53.412;-1.328;2023-07-31T08:09:39;19.00;1.00
22364;DHT22;11349;53.412;-1.328;2023-07-31T08:12:05;19.10;1.00
22364;DHT22;11349;53.412;-1.328;2023-07-31T08:14:34;19.10;1.00
22364;DHT22;11349;53.412;-1.328;2023-07-31T08:17:01;19.00;1.00
22364;DHT22;11349;53.412;-1.328;2023-07-31T08:19:27;19.00;1.00
22364;DHT22;11349;53.412;-1.328;2023-07-31T08:21:52;19.10;1.00
22364;DHT22;11349;53.412;-1.328;2023-07-31T08:24:18;19.10;1.00
22364;DHT22;11349;53.412;-1.328;2023-07-31T08:26:44;19.10;99.90
22364;DHT22;11349;53.412;-1.328;2023-07-31T08:29:10;19.10;1.00
22364;DHT22;11349;53.412;-1.328;2023-07-31T08:31:35;19.10;1.00
22364;DHT22;11349;53.412;-1.328;2023-07-31T08:34:01;19.20;99.90
22364;DHT22;11349;53.412;-1.328;2023-07-31T08:36:27;19.00;1.00
22364;DHT22;11349;53.412;-1.328;2023-07-31T08:38:53;19.10;99.90
22364;DHT22;11349;53.412;-1.328;2023-07-31T08:41:18;19.20;99.90
22364;DHT22;11349;53.412;-1.328;2023-07-31T08:43:46;19.30;99.90
22364;DHT22;11349;53.412;-1.328;2023-07-31T08:46:12;19.40;99.90
22364;DHT22;11349;53.412;-1.328;2023-07-31T08:48:41;19.40;99.90
22364;DHT22;11349;53.412;-1.328;2023-07-31T08:51:07;19.40;99.90
22364;DHT22;11349;53.412;-1.328;2023-07-31T08:53:33;19.40;99.90
22364;DHT22;11349;53.412;-1.328;2023-07-31T08:55:59;19.40;99.90
22364;DHT22;11349;53.412;-1.328;2023-07-31T08:58:28;19.40;99.90
22364;DHT22;11349;53.412;-1.328;2023-07-31T09:00:57;19.30;99.90
22364;DHT22;11349;53.412;-1.328;2023-07-31T09:03:24;19.30;99.90
22364;DHT22;11349;53.412;-1.328;2023-07-31T09:05:51;19.30;99.90
22364;DHT22;11349;53.412;-1.328;2023-07-31T09:08:19;19.30;99.90
22364;DHT22;11349;53.412;-1.328;2023-07-31T09:10:46;19.30;99.90
22364;DHT22;11349;53.412;-1.328;2023-07-31T09:13:13;19.40;99.90
22364;DHT22;11349;53.412;-1.328;2023-07-31T09:15:40;19.40;99.90
22364;DHT22;11349;53.412;-1.328;2023-07-31T09:18:08;19.50;99.90
22364;DHT22;11349;53.412;-1.328;2023-07-31T09:20:34;19.50;99.90
22364;DHT22;11349;53.412;-1.328;2023-07-31T09:23:13;19.50;99.90
22364;DHT22;11349;53.412;-1.328;2023-07-31T09:25:43;19.50;99.90
22364;DHT22;11349;53.412;-1.328;2023-07-31T09:28:10;19.50;99.90
22364;DHT22;11349;53.412;-1.328;2023-07-31T09:31:02;19.50;99.90
22364;DHT22;11349;53.412;-1.328;2023-07-31T09:33:28;19.50;99.90
22364;DHT22;11349;53.412;-1.328;2023-07-31T09:35:53;19.60;84.70
22364;DHT22;11349;53.412;-1.328;2023-07-31T09:38:19;19.60;99.90
22364;DHT22;11349;53.412;-1.328;2023-07-31T09:40:48;19.60;99.90
22364;DHT22;11349;53.412;-1.328;2023-07-31T09:43:21;19.60;99.90
22364;DHT22;11349;53.412;-1.328;2023-07-31T09:45:47;19.60;50.60
22364;DHT22;11349;53.412;-1.328;2023-07-31T09:48:17;19.50;90.20
22364;DHT22;11349;53.412;-1.328;2023-07-31T09:50:45;19.60;96.20
22364;DHT22;11349;53.412;-1.328;2023-07-31T09:53:11;19.60;49.20
22364;DHT22;11349;53.412;-1.328;2023-07-31T09:55:37;19.60;36.30
22364;DHT22;11349;53.412;-1.328;2023-07-31T09:58:05;19.60;99.90
22364;DHT22;11349;53.412;-1.328;2023-07-31T10:00:31;19.60;16.20
22364;DHT22;11349;53.412;-1.328;2023-07-31T10:03:02;19.50;99.90
22364;DHT22;11349;53.412;-1.328;2023-07-31T10:05:35;19.70;61.70
22364;DHT22;11349;53.412;-1.328;2023-07-31T10:08:02;19.60;99.90
22364;DHT22;11349;53.412;-1.328;2023-07-31T10:10:28;19.60;99.90
22364;DHT22;11349;53.412;-1.328;2023-07-31T10:12:56;19.70;27.80
22364;DHT22;11349;53.412;-1.328;2023-07-31T10:15:22;19.70;1.00
22364;DHT22;11349;53.412;-1.328;2023-07-31T10:17:50;19.70;1.00
22364;DHT22;11349;53.412;-1.328;2023-07-31T10:20:16;19.70;13.20
22364;DHT22;11349;53.412;-1.328;2023-07-31T10:22:46;19.60;99.90
22364;DHT22;11349;53.412;-1.328;2023-07-31T10:25:12;19.70;1.00
22364;DHT22;11349;53.412;-1.328;2023-07-31T10:27:41;19.70;1.00
22364;DHT22;11349;53.412;-1.328;2023-07-31T10:30:16;19.80;1.00
22364;DHT22;11349;53.412;-1.328;2023-07-31T10:32:44;19.80;1.00
22364;DHT22;11349;53.412;-1.328;2023-07-31T10:35:11;19.80;1.00
22364;DHT22;11349;53.412;-1.328;2023-07-31T10:37:39;19.80;1.00
22364;DHT22;11349;53.412;-1.328;2023-07-31T10:42:57;19.80;1.00
22364;DHT22;11349;53.412;-1.328;2023-07-31T10:45:40;19.80;1.00
22364;DHT22;11349;53.412;-1.328;2023-07-31T10:48:15;19.80;1.00
22364;DHT22;11349;53.412;-1.328;2023-07-31T10:50:56;19.80;1.00
22364;DHT22;11349;53.412;-1.328;2023-07-31T10:53:26;19.90;1.00
22364;DHT22;11349;53.412;-1.328;2023-07-31T10:55:53;19.90;1.00
22364;DHT22;11349;53.412;-1.328;2023-07-31T10:58:19;19.80;1.00
22364;DHT22;11349;53.412;-1.328;2023-07-31T11:00:46;19.90;1.00
22364;DHT22;11349;53.412;-1.328;2023-07-31T11:03:16;19.90;1.00
22364;DHT22;11349;53.412;-1.328;2023-07-31T11:08:47;19.90;1.00
22364;DHT22;11349;53.412;-1.328;2023-07-31T11:11:14;19.90;1.00
22364;DHT22;11349;53.412;-1.328;2023-07-31T11:13:52;19.90;1.00
22364;DHT22;11349;53.412;-1.328;2023-07-31T11:16:23;19.80;1.00
22364;DHT22;11349;53.412;-1.328;2023-07-31T11:18:50;19.80;1.00
22364;DHT22;11349;53.412;-1.328;2023-07-31T11:21:21;19.90;1.00
22364;DHT22;11349;53.412;-1.328;2023-07-31T11:23:52;20.00;1.00
22364;DHT22;11349;53.412;-1.328;2023-07-31T11:26:19;19.80;1.00
22364;DHT22;11349;53.412;-1.328;2023-07-31T11:28:56;19.90;1.00
22364;DHT22;11349;53.412;-1.328;2023-07-31T11:31:21;19.80;1.00
22364;DHT22;11349;53.412;-1.328;2023-07-31T11:33:47;19.80;1.00
22364;DHT22;11349;53.412;-1.328;2023-07-31T11:36:22;19.90;1.00
22364;DHT22;11349;53.412;-1.328;2023-07-31T11:38:50;19.90;1.00
22364;DHT22;11349;53.412;-1.328;2023-07-31T11:41:16;19.90;1.00
22364;DHT22;11349;53.412;-1.328;2023-07-31T11:43:42;19.90;2.60
22364;DHT22;11349;53.412;-1.328;2023-07-31T11:46:09;20.00;1.00
22364;DHT22;11349;53.412;-1.328;2023-07-31T11:48:36;20.00;1.00
22364;DHT22;11349;53.412;-1.328;2023-07-31T11:51:04;19.90;1.00
22364;DHT22;11349;53.412;-1.328;2023-07-31T11:53:36;20.00;1.00
22364;DHT22;11349;53.412;-1.328;2023-07-31T11:56:04;20.00;1.00
22364;DHT22;11349;53.412;-1.328;2023-07-31T11:58:32;20.00;1.00
22364;DHT22;11349;53.412;-1.328;2023-07-31T12:00:59;20.00;1.00
22364;DHT22;11349;53.412;-1.328;2023-07-31T12:03:26;20.00;1.00
22364;DHT22;11349;53.412;-1.328;2023-07-31T12:05:53;19.90;99.90
22364;DHT22;11349;53.412;-1.328;2023-07-31T12:08:21;20.00;1.00
22364;DHT22;11349;53.412;-1.328;2023-07-31T12:10:50;20.00;1.00
22364;DHT22;11349;53.412;-1.328;2023-07-31T12:13:24;20.00;1.00
22364;DHT22;11349;53.412;-1.328;2023-07-31T12:15:57;20.00;1.00
22364;DHT22;11349;53.412;-1.328;2023-07-31T12:18:25;20.00;1.00
22364;DHT22;11349;53.412;-1.328;2023-07-31T12:20:56;20.00;1.00
22364;DHT22;11349;53.412;-1.328;2023-07-31T12:23:27;20.00;1.00
22364;DHT22;11349;53.412;-1.328;2023-07-31T12:26:13;19.90;99.90
22364;DHT22;11349;53.412;-1.328;2023-07-31T12:28:46;19.90;1.00
22364;DHT22;11349;53.412;-1.328;2023-07-31T12:31:17;20.00;99.90
22364;DHT22;11349;53.412;-1.328;2023-07-31T12:33:43;19.90;99.90
22364;DHT22;11349;53.412;-1.328;2023-07-31T12:36:14;19.90;99.90
22364;DHT22;11349;53.412;-1.328;2023-07-31T12:38:41;19.90;99.90
22364;DHT22;11349;53.412;-1.328;2023-07-31T12:41:07;19.90;99.90
22364;DHT22;11349;53.412;-1.328;2023-07-31T12:43:34;19.80;99.90
22364;DHT22;11349;53.412;-1.328;2023-07-31T12:46:00;19.80;1.00
22364;DHT22;11349;53.412;-1.328;2023-07-31T12:48:31;19.90;99.90
22364;DHT22;11349;53.412;-1.328;2023-07-31T12:50:56;19.90;99.90
22364;DHT22;11349;53.412;-1.328;2023-07-31T12:53:22;19.90;99.90
22364;DHT22;11349;53.412;-1.328;2023-07-31T12:55:48;19.90;99.90
22364;DHT22;11349;53.412;-1.328;2023-07-31T12:58:13;19.80;99.90
22364;DHT22;11349;53.412;-1.328;2023-07-31T13:00:39;19.80;99.90
22364;DHT22;11349;53.412;-1.328;2023-07-31T13:03:05;19.90;99.90
22364;DHT22;11349;53.412;-1.328;2023-07-31T13:05:31;19.90;99.90
22364;DHT22;11349;53.412;-1.328;2023-07-31T13:07:57;19.80;99.90
22364;DHT22;11349;53.412;-1.328;2023-07-31T13:10:23;19.90;99.90
22364;DHT22;11349;53.412;-1.328;2023-07-31T13:12:49;19.80;99.90
22364;DHT22;11349;53.412;-1.328;2023-07-31T13:15:15;19.60;99.90
22364;DHT22;11349;53.412;-1.328;2023-07-31T13:17:42;19.50;99.90
22364;DHT22;11349;53.412;-1.328;2023-07-31T13:20:08;19.50;99.90
22364;DHT22;11349;53.412;-1.328;2023-07-31T13:22:33;19.60;99.90
22364;DHT22;11349;53.412;-1.328;2023-07-31T13:24:59;19.60;99.90
22364;DHT22;11349;53.412;-1.328;2023-07-31T13:27:25;19.70;99.90
22364;DHT22;11349;53.412;-1.328;2023-07-31T13:29:51;19.60;1.00
22364;DHT22;11349;53.412;-1.328;2023-07-31T13:32:18;19.60;99.90
22364;DHT22;11349;53.412;-1.328;2023-07-31T13:34:45;19.30;99.90
22364;DHT22;11349;53.412;-1.328;2023-07-31T13:37:10;19.10;1.00
22364;DHT22;11349;53.412;-1.328;2023-07-31T13:39:36;19.10;99.90
22364;DHT22;11349;53.412;-1.328;2023-07-31T13:42:03;19.30;1.00
22364;DHT22;11349;53.412;-1.328;2023-07-31T13:44:32;19.20;1.00
22364;DHT22;11349;53.412;-1.328;2023-07-31T13:46:59;19.30;1.00
22364;DHT22;11349;53.412;-1.328;2023-07-31T13:49:25;19.30;99.90
22364;DHT22;11349;53.412;-1.328;2023-07-31T13:51:51;19.30;1.00
22364;DHT22;11349;53.412;-1.328;2023-07-31T13:54:17;19.40;99.90
22364;DHT22;11349;53.412;-1.328;2023-07-31T13:56:43;19.40;99.90
22364;DHT22;11349;53.412;-1.328;2023-07-31T13:59:13;19.50;99.90
22364;DHT22;11349;53.412;-1.328;2023-07-31T14:01:40;19.50;99.90
22364;DHT22;11349;53.412;-1.328;2023-07-31T14:04:06;19.30;99.90
22364;DHT22;11349;53.412;-1.328;2023-07-31T14:06:32;19.20;1.00
22364;DHT22;11349;53.412;-1.328;2023-07-31T14:08:57;19.10;34.30
22364;DHT22;11349;53.412;-1.328;2023-07-31T14:11:23;18.90;99.90
22364;DHT22;11349;53.412;-1.328;2023-07-31T14:13:50;18.80;99.90
22364;DHT22;11349;53.412;-1.328;2023-07-31T14:16:16;18.80;99.90
22364;DHT22;11349;53.412;-1.328;2023-07-31T14:18:43;18.90;99.90
22364;DHT22;11349;53.412;-1.328;2023-07-31T14:21:08;18.90;99.90
22364;DHT22;11349;53.412;-1.328;2023-07-31T14:23:34;19.00;99.90
22364;DHT22;11349;53.412;-1.328;2023-07-31T14:26:00;19.10;17.80
22364;DHT22;11349;53.412;-1.328;2023-07-31T14:28:26;19.20;1.00
22364;DHT22;11349;53.412;-1.328;2023-07-31T14:30:51;19.20;3.30
22364;DHT22;11349;53.412;-1.328;2023-07-31T14:33:17;19.30;1.00
22364;DHT22;11349;53.412;-1.328;2023-07-31T14:35:43;19.40;1.00
22364;DHT22;11349;53.412;-1.328;2023-07-31T14:38:09;19.40;1.00
22364;DHT22;11349;53.412;-1.328;2023-07-31T14:40:35;19.30;1.00
22364;DHT22;11349;53.412;-1.328;2023-07-31T14:43:00;19.40;1.00
22364;DHT22;11349;53.412;-1.328;2023-07-31T14:45:26;19.40;1.00
22364;DHT22;11349;53.412;-1.328;2023-07-31T14:47:52;19.30;30.70
22364;DHT22;11349;53.412;-1.328;2023-07-31T14:50:19;19.30;38.60
22364;DHT22;11349;53.412;-1.328;2023-07-31T14:52:45;19.40;1.00
22364;DHT22;11349;53.412;-1.328;2023-07-31T14:55:11;19.30;1.00
22364;DHT22;11349;53.412;-1.328;2023-07-31T14:57:36;19.20;1.00
22364;DHT22;11349;53.412;-1.328;2023-07-31T15:00:02;19.30;1.00
22364;DHT22;11349;53.412;-1.328;2023-07-31T15:02:34;19.10;30.80
22364;DHT22;11349;53.412;-1.328;2023-07-31T15:05:00;19.20;46.10
22364;DHT22;11349;53.412;-1.328;2023-07-31T15:07:26;19.10;99.90
22364;DHT22;11349;53.412;-1.328;2023-07-31T15:09:52;19.10;42.90
22364;DHT22;11349;53.412;-1.328;2023-07-31T15:12:17;19.00;93.30
22364;DHT22;11349;53.412;-1.328;2023-07-31T15:14:46;18.90;99.90
22364;DHT22;11349;53.412;-1.328;2023-07-31T15:17:11;19.10;28.40
22364;DHT22;11349;53.412;-1.328;2023-07-31T15:19:37;19.10;1.00
22364;DHT22;11349;53.412;-1.328;2023-07-31T15:22:03;19.10;1.00
22364;DHT22;11349;53.412;-1.328;2023-07-31T15:24:29;19.20;1.00
22364;DHT22;11349;53.412;-1.328;2023-07-31T15:26:55;19.40;1.00
22364;DHT22;11349;53.412;-1.328;2023-07-31T15:29:21;19.40;99.90
22364;DHT22;11349;53.412;-1.328;2023-07-31T15:31:47;19.20;1.00